Time;durP1;ratioP1;P1;durP2;ratioP2;P2;SDS_P1;SDS_P2;PMS_P1;PMS_P2;Temp;Humidity;BMP_temperature;BMP_pressure;BME280_temperature;BME280_humidity;BME280_pressure;Samples;Min_cycle;Max_cycle;Signal;HPM_P1;HPM_P2
2023/08/31 00:00:44;;;;;;;;;;;;;;;17.03;82.78;99464.66;10351887;28;20211;-49
2023/08/31 00:05:46;;;;;;;4.05;1.90;;;;;;;17.00;82.88;99462.31;10340830;28;19925;-47
2023/08/31 00:10:59;;;;;;;2.70;2.28;;;;;;;17.05;83.35;99459.91;10352674;28;20059;-49
2023/08/31 00:16:01;;;;;;;2.90;1.33;;;;;;;17.09;83.42;99469.28;10350941;28;20060;-49
2023/08/31 00:21:03;;;;;;;2.00;1.60;;;;;;;17.08;83.14;99476.53;10350882;28;20901;-50
2023/08/31 00:26:05;;;;;;;2.65;2.00;;;;;;;17.04;82.88;99466.28;10351446;28;20537;-49
2023/08/31 00:31:07;;;;;;;3.70;2.47;;;;;;;17.06;82.70;99466.97;10349824;28;20056;-54
2023/08/31 00:36:09;;;;;;;2.70;2.10;;;;;;;17.03;81.75;99473.53;10348018;28;20085;-54
2023/08/31 00:41:12;;;;;;;2.97;1.98;;;;;;;17.03;81.93;99478.09;10351604;28;20048;-49
2023/08/31 00:46:14;;;;;;;2.95;1.83;;;;;;;16.98;82.42;99480.47;10349424;28;20060;-49
2023/08/31 00:51:17;;;;;;;2.85;1.98;;;;;;;16.92;82.54;99472.13;10330487;28;20109;-49
2023/08/31 00:56:19;;;;;;;3.75;2.30;;;;;;;16.99;82.66;99487.53;10346566;28;20605;-49
2023/08/31 01:01:39;;;;;;;2.47;1.85;;;;;;;16.99;82.37;99490.22;10335878;28;20679;-49
2023/08/31 01:07:03;;;;;;;2.78;2.20;;;;;;;16.85;82.53;99475.72;10345800;28;20101;-49
2023/08/31 01:12:11;;;;;;;3.83;2.80;;;;;;;16.90;82.47;99484.94;10343812;28;20041;-49
2023/08/31 01:17:14;;;;;;;4.20;2.80;;;;;;;16.86;82.29;99488.97;10348285;28;20130;-50
2023/08/31 01:22:40;;;;;;;3.80;2.37;;;;;;;16.84;83.01;99491.00;10321114;28;20054;-49
2023/08/31 01:27:42;;;;;;;3.33;3.00;;;;;;;16.83;82.19;99494.72;10333142;28;20533;-49
2023/08/31 01:32:53;;;;;;;4.43;3.17;;;;;;;16.77;82.62;99496.28;10334603;28;20188;-49
2023/08/31 01:38:01;;;;;;;3.17;2.08;;;;;;;16.72;83.00;99493.31;10339770;28;20049;-49
2023/08/31 01:43:05;;;;;;;3.67;2.15;;;;;;;16.79;83.28;99504.97;10346000;28;20053;-49
2023/08/31 01:48:07;;;;;;;3.60;2.47;;;;;;;16.78;82.91;99507.84;10338991;28;20103;-48
2023/08/31 01:53:08;;;;;;;3.78;2.40;;;;;;;16.75;82.67;99502.84;10341859;28;20053;-49
2023/08/31 01:58:11;;;;;;;3.03;2.40;;;;;;;16.71;82.67;99517.66;10317554;28;20223;-49
2023/08/31 02:03:12;;;;;;;4.00;2.63;;;;;;;16.68;83.00;99515.31;10327578;28;20210;-48
2023/08/31 02:08:17;;;;;;;5.75;2.28;;;;;;;16.61;83.19;99513.38;10327830;28;20187;-48
2023/08/31 02:13:19;;;;;;;3.35;2.42;;;;;;;16.53;82.38;99510.75;10341194;28;20052;-49
2023/08/31 02:18:20;;;;;;;2.33;2.08;;;;;;;16.46;82.51;99509.81;10336883;28;20107;-49
2023/08/31 02:23:22;;;;;;;2.30;2.10;;;;;;;16.42;82.53;99520.09;10327184;28;20057;-49
2023/08/31 02:28:23;;;;;;;2.60;2.10;;;;;;;16.38;82.88;99520.63;10325884;28;20057;-49
2023/08/31 02:33:26;;;;;;;2.50;1.83;;;;;;;16.37;82.73;99516.25;10339272;28;20073;-49
2023/08/31 02:38:28;;;;;;;3.22;2.33;;;;;;;16.41;82.98;99528.31;10322646;28;20189;-49
2023/08/31 02:43:30;;;;;;;4.70;2.33;;;;;;;16.37;81.98;99522.44;10318265;28;20046;-49
2023/08/31 02:48:32;;;;;;;4.82;2.08;;;;;;;16.30;81.92;99528.72;10336181;28;20569;-48
2023/08/31 02:53:34;;;;;;;3.22;2.60;;;;;;;16.24;82.14;99523.06;10340127;28;20042;-49
2023/08/31 02:58:36;;;;;;;2.60;2.30;;;;;;;16.27;82.26;99529.91;10335944;28;20181;-50
2023/08/31 03:03:42;;;;;;;4.25;2.72;;;;;;;16.29;81.86;99529.72;10317290;28;20770;-48
2023/08/31 03:08:43;;;;;;;3.08;2.45;;;;;;;16.09;81.66;99519.44;10307686;28;20042;-49
2023/08/31 03:13:45;;;;;;;4.63;2.50;;;;;;;16.09;81.72;99535.56;10335160;28;20053;-49
2023/08/31 03:18:47;;;;;;;7.82;3.38;;;;;;;16.07;81.54;99532.22;10348169;28;20049;-50
2023/08/31 03:23:48;;;;;;;3.65;1.92;;;;;;;16.07;81.45;99529.53;10346908;28;20136;-49
2023/08/31 03:28:49;;;;;;;3.35;2.13;;;;;;;16.05;82.18;99529.72;10346150;28;20071;-49
2023/08/31 03:33:51;;;;;;;4.40;2.67;;;;;;;15.98;81.50;99528.75;10344868;28;20115;-49
2023/08/31 03:38:52;;;;;;;3.88;2.33;;;;;;;15.89;82.25;99537.84;10344161;28;20183;-49
2023/08/31 03:43:54;;;;;;;5.10;2.70;;;;;;;15.76;82.29;99535.69;10336389;28;20138;-49
2023/08/31 03:48:55;;;;;;;4.32;2.80;;;;;;;15.67;82.23;99540.28;10340929;28;20220;-49
2023/08/31 03:53:56;;;;;;;5.72;3.60;;;;;;;15.59;83.15;99550.19;10344211;28;20463;-50
2023/08/31 03:58:58;;;;;;;4.05;2.97;;;;;;;15.56;83.34;99552.19;10331493;28;20054;-49
2023/08/31 04:03:59;;;;;;;6.05;3.00;;;;;;;15.63;83.05;99570.31;10336459;28;20237;-49
2023/08/31 04:09:01;;;;;;;6.53;3.88;;;;;;;15.63;82.70;99570.31;10347262;28;20702;-49
2023/08/31 04:14:02;;;;;;;5.07;3.58;;;;;;;15.62;82.59;99572.13;10341835;28;20730;-48
2023/08/31 04:19:04;;;;;;;5.28;3.10;;;;;;;15.63;82.17;99578.38;10339358;28;20457;-48
2023/08/31 04:24:06;;;;;;;4.22;2.75;;;;;;;15.63;82.87;99578.38;10308279;28;20053;-48
2023/08/31 04:29:07;;;;;;;3.67;3.25;;;;;;;15.67;82.37;99598.44;10346748;28;20053;-49
2023/08/31 04:34:08;;;;;;;3.70;3.00;;;;;;;15.63;82.51;99586.41;10326479;28;20128;-49
2023/08/31 04:39:10;;;;;;;4.63;2.92;;;;;;;15.58;82.54;99596.81;10341497;28;20050;-48
2023/08/31 04:44:12;;;;;;;3.53;3.10;;;;;;;15.45;83.02;99590.13;10340265;28;20049;-49
2023/08/31 04:49:14;;;;;;;3.65;2.97;;;;;;;15.41;83.29;99602.22;10342581;28;20053;-48
2023/08/31 04:54:16;;;;;;;3.72;3.20;;;;;;;15.43;82.99;99599.34;10327471;28;20054;-48
2023/08/31 04:59:17;;;;;;;4.57;3.00;;;;;;;15.44;83.21;99611.75;10329287;28;20128;-48
2023/08/31 05:04:19;;;;;;;4.95;3.53;;;;;;;15.32;83.84;99625.50;10338726;28;20190;-49
2023/08/31 05:09:20;;;;;;;4.15;2.80;;;;;;;15.32;84.12;99613.97;10326968;28;20522;-49
2023/08/31 05:14:22;;;;;;;5.63;3.13;;;;;;;15.24;84.28;99624.69;10335195;28;20073;-48
2023/08/31 05:19:24;;;;;;;5.60;3.65;;;;;;;15.24;84.80;99633.56;10334169;28;20058;-48
2023/08/31 05:24:28;;;;;;;4.93;3.50;;;;;;;15.23;84.10;99641.78;10335421;28;20049;-48
2023/08/31 05:29:30;;;;;;;7.55;3.60;;;;;;;15.23;84.31;99650.66;10308840;28;20049;-51
2023/08/31 05:34:37;;;;;;;4.82;3.75;;;;;;;15.23;84.15;99665.91;10318035;28;20054;-49
2023/08/31 05:39:39;;;;;;;6.28;3.58;;;;;;;15.15;84.19;99666.75;10320647;28;20061;-48
2023/08/31 05:44:40;;;;;;;5.93;3.42;;;;;;;15.22;83.80;99656.19;10332180;28;20124;-49
2023/08/31 05:49:42;;;;;;;4.93;3.42;;;;;;;15.28;82.70;99666.25;10331584;28;20186;-49
2023/08/31 05:54:43;;;;;;;5.18;3.35;;;;;;;15.23;83.33;99671.28;10329963;28;20049;-49
2023/08/31 05:59:45;;;;;;;4.20;3.03;;;;;;;15.34;82.70;99668.25;10329610;28;20053;-52
2023/08/31 06:04:46;;;;;;;3.47;3.05;;;;;;;15.31;82.62;99665.91;10318324;28;20301;-51
2023/08/31 06:09:48;;;;;;;5.43;3.15;;;;;;;15.34;82.78;99671.78;10327766;28;20056;-50
2023/08/31 06:14:50;;;;;;;4.68;3.75;;;;;;;15.30;82.08;99685.69;10320818;28;20596;-51
2023/08/31 06:19:52;;;;;;;5.65;3.70;;;;;;;15.35;81.87;99688.69;10320607;28;20045;-51
2023/08/31 06:24:53;;;;;;;7.45;3.63;;;;;;;15.47;81.77;99698.06;10309625;28;20422;-53
2023/08/31 06:29:55;;;;;;;5.45;3.90;;;;;;;15.48;80.79;99699.75;10325406;28;20065;-51
2023/08/31 06:34:57;;;;;;;5.85;3.35;;;;;;;15.62;80.37;99700.06;10324721;28;20054;-50
2023/08/31 06:39:58;;;;;;;4.53;3.33;;;;;;;15.67;80.06;99697.72;10317922;28;20814;-51
2023/08/31 06:45:00;;;;;;;4.80;3.45;;;;;;;15.83;79.01;99697.72;10322237;28;20061;-49
2023/08/31 06:50:03;;;;;;;3.67;3.28;;;;;;;15.79;77.94;99704.41;10306947;28;20050;-51
2023/08/31 06:55:06;;;;;;;4.38;3.30;;;;;;;15.71;78.43;99688.31;10301253;28;20144;-50
2023/08/31 07:00:08;;;;;;;5.05;4.20;;;;;;;15.79;78.41;99717.84;10327542;28;20063;-51
2023/08/31 07:05:10;;;;;;;5.82;3.75;;;;;;;15.96;78.58;99717.81;10323433;28;20049;-51
2023/08/31 07:10:13;;;;;;;3.35;3.05;;;;;;;16.07;77.73;99730.88;10294894;28;20084;-50
2023/08/31 07:15:16;;;;;;;4.03;2.95;;;;;;;15.96;77.24;99718.66;10311592;28;20048;-50
2023/08/31 07:20:17;;;;;;;4.72;3.20;;;;;;;16.14;76.78;99729.19;10294941;28;20682;-50
2023/08/31 07:25:19;;;;;;;3.88;2.60;;;;;;;16.24;76.70;99737.88;10328608;28;20069;-50
2023/08/31 07:30:21;;;;;;;5.70;2.97;;;;;;;16.26;76.74;99754.66;10331448;28;20136;-52
2023/08/31 07:35:22;;;;;;;4.47;2.33;;;;;;;16.43;75.92;99744.69;10309501;28;20064;-51
2023/08/31 07:40:25;;;;;;;3.05;2.20;;;;;;;16.64;73.53;99745.94;10300776;28;20172;-51
2023/08/31 07:45:26;;;;;;;4.00;2.38;;;;;;;16.71;73.28;99748.75;10333179;28;20546;-50
2023/08/31 07:50:28;;;;;;;4.95;2.33;;;;;;;16.85;72.93;99756.06;10332304;28;20056;-50
2023/08/31 07:55:29;;;;;;;4.32;2.22;;;;;;;16.92;72.33;99751.69;10333755;28;20952;-54
2023/08/31 08:00:31;;;;;;;5.22;2.10;;;;;;;17.19;72.04;99757.59;10333229;28;20057;-50
2023/08/31 08:05:32;;;;;;;4.43;2.22;;;;;;;17.27;70.20;99765.59;10338527;28;20068;-51
2023/08/31 08:10:34;;;;;;;3.63;1.80;;;;;;;17.46;71.65;99779.59;10327627;28;20058;-52
2023/08/31 08:15:35;;;;;;;2.78;2.33;;;;;;;17.53;69.35;99766.25;10321680;28;20450;-51
2023/08/31 08:20:37;;;;;;;4.93;1.95;;;;;;;17.59;70.09;99782.47;10314194;28;20050;-51
2023/08/31 08:25:39;;;;;;;4.57;2.08;;;;;;;17.65;70.38;99784.47;10338951;28;20858;-52
2023/08/31 08:30:40;;;;;;;2.83;2.00;;;;;;;17.64;69.98;99780.09;10324461;28;20061;-50
2023/08/31 08:35:41;;;;;;;3.45;2.20;;;;;;;17.95;69.44;99789.13;10324018;28;20095;-51
2023/08/31 08:40:43;;;;;;;2.92;1.55;;;;;;;17.96;65.38;99799.69;10319904;28;20049;-50
2023/08/31 08:45:46;;;;;;;4.50;1.63;;;;;;;18.09;64.71;99792.84;10339490;28;20068;-52
2023/08/31 08:50:49;;;;;;;4.30;1.55;;;;;;;18.22;64.92;99794.91;10322291;28;20060;-54
2023/08/31 08:55:50;;;;;;;6.55;1.73;;;;;;;18.36;64.26;99818.34;10337250;28;20179;-55
2023/08/31 09:00:55;;;;;;;2.42;1.30;;;;;;;18.22;64.01;99816.47;10341966;28;20045;-54
2023/08/31 09:06:01;;;;;;;3.13;1.27;;;;;;;18.12;65.10;99827.47;10340296;28;20402;-56
2023/08/31 09:11:02;;;;;;;3.28;1.92;;;;;;;17.98;65.51;99834.53;10310154;28;20079;-56
2023/08/31 09:16:04;;;;;;;3.28;1.85;;;;;;;17.81;65.68;99820.34;10322795;28;20053;-55
2023/08/31 09:21:06;;;;;;;5.85;1.52;;;;;;;17.83;67.00;99829.94;10334515;28;20064;-57
2023/08/31 09:26:07;;;;;;;4.00;1.40;;;;;;;17.96;64.55;99818.56;10344007;28;20174;-57
2023/08/31 09:31:09;;;;;;;1.92;1.27;;;;;;;17.94;64.28;99825.97;10314521;28;20163;-55
2023/08/31 09:36:11;;;;;;;5.05;1.30;;;;;;;17.94;63.97;99809.84;10342062;28;20232;-56
2023/08/31 09:41:13;;;;;;;4.25;1.48;;;;;;;18.09;64.83;99823.31;10339942;28;20050;-55
2023/08/31 09:46:15;;;;;;;5.47;1.92;;;;;;;18.35;63.66;99825.56;10319649;28;20150;-57
2023/08/31 09:51:22;;;;;;;3.97;1.50;;;;;;;18.46;63.47;99818.06;10339428;28;20064;-44
2023/08/31 09:56:27;;;;;;;2.55;1.30;;;;;;;18.48;63.29;99814.16;10342022;28;20111;-44
2023/08/31 10:01:28;;;;;;;2.95;1.73;;;;;;;18.42;62.64;99817.59;10340003;28;20068;-42
2023/08/31 10:06:31;;;;;;;4.25;1.60;;;;;;;18.33;62.13;99818.69;10337115;28;20486;-44
2023/08/31 10:11:32;;;;;;;5.45;1.60;;;;;;;18.27;61.71;99825.69;10320997;28;20049;-44
2023/08/31 10:16:34;;;;;;;2.85;1.15;;;;;;;18.31;62.11;99813.47;10336595;28;20094;-43
2023/08/31 10:21:37;;;;;;;2.90;1.45;;;;;;;18.59;61.76;99828.19;10336905;28;20656;-43
2023/08/31 10:26:38;;;;;;;2.90;1.10;;;;;;;18.76;60.58;99818.03;10338269;28;20215;-44
2023/08/31 10:31:40;;;;;;;3.67;1.90;;;;;;;18.72;60.68;99823.81;10320645;28;20089;-43
2023/08/31 10:36:46;;;;;;;4.03;1.60;;;;;;;18.68;59.41;99822.50;10338312;28;20129;-44
2023/08/31 10:41:56;;;;;;;2.53;1.27;;;;;;;18.83;59.62;99822.50;10336233;28;20790;-43
2023/08/31 10:47:04;;;;;;;5.07;1.67;;;;;;;18.98;58.82;99827.91;10336740;28;20122;-45
2023/08/31 10:52:17;;;;;;;3.22;1.23;;;;;;;19.36;57.91;99819.59;10334726;28;20755;-43
2023/08/31 10:57:37;;;;;;;2.55;1.23;;;;;;;19.68;56.68;99817.44;10335428;28;20054;-44
2023/08/31 11:02:41;;;;;;;2.42;0.80;;;;;;;19.87;56.72;99815.13;10331522;28;20136;-43
2023/08/31 11:07:45;;;;;;;3.97;1.67;;;;;;;19.98;56.93;99784.88;10333524;28;20158;-44
2023/08/31 11:12:52;;;;;;;3.15;1.38;;;;;;;20.68;54.33;99795.72;10333409;28;20057;-43
2023/08/31 11:17:55;;;;;;;2.90;1.58;;;;;;;21.02;53.93;99792.13;10339401;28;20045;-45
2023/08/31 11:22:56;;;;;;;3.35;1.52;;;;;;;21.09;53.94;99775.94;10313185;28;20101;-43
2023/08/31 11:28:01;;;;;;;3.35;0.80;;;;;;;20.87;52.81;99796.88;10320880;28;20977;-43
2023/08/31 11:33:07;;;;;;;3.45;0.90;;;;;;;20.57;53.96;99804.41;10334761;28;20080;-51
2023/08/31 11:38:09;;;;;;;2.60;1.38;;;;;;;20.27;53.35;99797.34;10344407;28;20049;-52
2023/08/31 11:43:12;;;;;;;2.75;1.13;;;;;;;19.99;54.20;99796.53;10340300;28;20053;-51
2023/08/31 11:48:15;;;;;;;2.55;1.25;;;;;;;20.63;54.45;99793.59;10336557;28;20049;-50
2023/08/31 11:53:16;;;;;;;2.72;0.95;;;;;;;20.91;50.72;99786.47;10336183;28;20503;-52
2023/08/31 11:58:18;;;;;;;3.35;1.00;;;;;;;20.96;52.84;99792.13;10335359;28;20062;-53
2023/08/31 12:03:19;;;;;;;3.13;0.90;;;;;;;21.01;49.99;99789.63;10332067;28;20054;-51
2023/08/31 12:08:27;;;;;;;2.97;1.23;;;;;;;20.93;50.84;99770.88;10318584;28;20636;-51
2023/08/31 12:13:29;;;;;;;3.50;1.08;;;;;;;20.86;52.10;99778.13;10340524;28;20057;-51
2023/08/31 12:18:32;;;;;;;1.45;1.13;;;;;;;21.13;51.85;99784.47;10332389;28;20112;-52
2023/08/31 12:23:34;;;;;;;4.93;1.08;;;;;;;21.49;49.72;99780.56;10317284;28;20958;-52
2023/08/31 12:28:35;;;;;;;2.97;1.08;;;;;;;21.46;50.42;99775.56;10335519;28;20058;-52
2023/08/31 12:33:37;;;;;;;4.93;1.50;;;;;;;21.31;49.27;99764.94;10338259;28;20216;-51
2023/08/31 12:38:38;;;;;;;3.95;1.02;;;;;;;21.26;50.51;99762.84;10336196;28;20053;-58
2023/08/31 12:43:39;;;;;;;1.80;0.73;;;;;;;21.78;49.85;99768.50;10335292;28;20057;-53
2023/08/31 12:48:41;;;;;;;1.77;0.70;;;;;;;22.35;48.20;99762.63;10332601;28;20659;-52
2023/08/31 12:53:42;;;;;;;3.65;0.90;;;;;;;22.41;47.70;99746.38;10307509;28;20051;-51
2023/08/31 12:58:45;;;;;;;2.47;0.97;;;;;;;22.02;47.05;99747.25;10337085;28;20085;-51
2023/08/31 13:03:47;;;;;;;3.75;1.15;;;;;;;21.56;45.94;99754.38;10321901;28;20227;-51
2023/08/31 13:08:50;;;;;;;1.92;0.80;;;;;;;21.32;47.19;99753.06;10333528;28;20076;-52
2023/08/31 13:13:52;;;;;;;3.92;1.27;;;;;;;21.17;49.52;99754.06;10331502;28;20049;-51
2023/08/31 13:18:53;;;;;;;2.80;1.10;;;;;;;21.18;49.57;99744.94;10336837;28;20140;-51
2023/08/31 13:23:55;;;;;;;3.78;0.95;;;;;;;21.09;49.02;99719.09;10330795;28;20064;-51
2023/08/31 13:28:57;;;;;;;1.50;0.90;;;;;;;21.40;49.31;99743.91;10330343;28;20492;-52
2023/08/31 13:33:58;;;;;;;1.38;0.90;;;;;;;21.91;47.67;99739.78;10329061;28;20601;-52
2023/08/31 13:39:00;;;;;;;2.35;0.90;;;;;;;22.12;45.27;99742.22;10313000;28;20076;-52
2023/08/31 13:44:01;;;;;;;2.08;1.33;;;;;;;22.19;41.82;99721.38;10319323;28;20902;-51
2023/08/31 13:49:03;;;;;;;3.50;1.00;;;;;;;22.29;41.82;99749.91;10324121;28;20493;-53
2023/08/31 13:54:05;;;;;;;3.05;1.13;;;;;;;22.15;38.90;99727.44;10288460;28;21326;-51
2023/08/31 13:59:08;;;;;;;2.00;1.08;;;;;;;22.10;40.19;99727.22;10295837;28;20152;-56
2023/08/31 14:04:09;;;;;;;2.63;1.00;;;;;;;22.01;40.18;99724.75;10328463;28;20061;-52
2023/08/31 14:09:11;;;;;;;2.10;0.88;;;;;;;22.06;41.01;99716.81;10329519;28;20053;-51
2023/08/31 14:14:12;;;;;;;2.22;1.25;;;;;;;22.02;40.17;99733.69;10328129;28;20056;-50
2023/08/31 14:19:14;;;;;;;3.38;0.95;;;;;;;21.97;38.59;99722.66;10309375;28;20479;-55
2023/08/31 14:24:15;;;;;;;2.22;1.15;;;;;;;21.88;37.69;99720.16;10323309;28;20534;-51
2023/08/31 14:29:17;;;;;;;3.85;0.90;;;;;;;21.77;39.04;99723.53;10323123;28;20726;-52
2023/08/31 14:34:18;;;;;;;4.32;1.35;;;;;;;21.78;37.94;99719.75;10325897;28;20075;-50
2023/08/31 14:39:20;;;;;;;4.15;1.20;;;;;;;21.77;39.07;99728.09;10317628;28;20049;-52
2023/08/31 14:44:22;;;;;;;2.35;1.52;;;;;;;21.63;38.40;99736.25;10328621;28;20567;-50
2023/08/31 14:49:27;;;;;;;4.47;1.02;;;;;;;21.49;38.54;99738.06;10308788;28;20054;-53
2023/08/31 14:54:30;;;;;;;3.42;1.00;;;;;;;21.34;38.91;99746.38;10326919;28;20042;-50
2023/08/31 14:59:31;;;;;;;2.97;1.40;;;;;;;21.22;39.62;99747.22;10333058;28;20167;-51
2023/08/31 15:04:33;;;;;;;2.53;1.17;;;;;;;21.12;40.67;99743.03;10325179;28;20050;-51
2023/08/31 15:09:34;;;;;;;5.25;1.40;;;;;;;21.04;40.67;99745.94;10324985;28;20057;-52
2023/08/31 15:14:38;;;;;;;3.75;1.33;;;;;;;21.01;41.39;99746.34;10323183;28;20056;-52
2023/08/31 15:19:39;;;;;;;4.50;1.20;;;;;;;21.03;41.68;99752.38;10328192;28;20046;-51
2023/08/31 15:24:42;;;;;;;4.80;1.25;;;;;;;20.91;41.09;99725.09;10330062;28;20052;-50
2023/08/31 15:29:44;;;;;;;3.40;1.13;;;;;;;20.94;42.24;99746.34;10325049;28;20572;-51
2023/08/31 15:34:46;;;;;;;3.97;1.30;;;;;;;20.88;41.64;99746.28;10299872;28;20617;-51
2023/08/31 15:39:51;;;;;;;1.77;0.93;;;;;;;20.89;42.62;99753.38;10319508;28;20061;-51
2023/08/31 15:44:52;;;;;;;2.70;1.25;;;;;;;20.92;42.93;99758.38;10318979;28;20050;-55
2023/08/31 15:49:55;;;;;;;3.55;1.33;;;;;;;20.95;43.54;99757.97;10329532;28;21535;-55
2023/08/31 15:54:58;;;;;;;3.40;1.63;;;;;;;20.90;43.56;99742.34;10324753;28;20106;-55
2023/08/31 16:00:00;;;;;;;;;;;;;;;21.00;43.99;99748.22;10317136;28;20049;-59
2023/08/31 16:05:06;;;;;;;3.55;1.80;;;;;;;20.89;43.23;99743.38;10309865;28;19929;-55
2023/08/31 16:10:08;;;;;;;5.22;1.67;;;;;;;20.88;43.67;99759.81;10326989;28;20060;-54
2023/08/31 16:15:10;;;;;;;4.10;1.40;;;;;;;20.79;44.63;99749.19;10326288;28;20050;-55
2023/08/31 16:20:11;;;;;;;6.03;1.60;;;;;;;20.76;45.13;99752.31;10329693;28;20049;-55
2023/08/31 16:25:16;;;;;;;3.25;1.30;;;;;;;20.71;45.24;99760.19;10315749;28;20060;-55
2023/08/31 16:30:18;;;;;;;2.67;1.23;;;;;;;20.69;45.66;99751.44;10331387;28;20068;-54
2023/08/31 16:35:19;;;;;;;3.03;1.42;;;;;;;20.57;45.80;99739.50;10313709;28;20491;-56
2023/08/31 16:40:21;;;;;;;4.20;0.95;;;;;;;20.52;46.22;99752.78;10304754;28;20049;-55
2023/08/31 16:45:25;;;;;;;4.30;1.58;;;;;;;20.46;46.50;99759.81;10334846;28;20065;-55
2023/08/31 16:50:31;;;;;;;2.88;1.90;;;;;;;20.43;47.27;99755.66;10330142;28;20912;-61
2023/08/31 16:55:33;;;;;;;7.47;2.30;;;;;;;20.31;47.37;99766.19;10300670;28;20232;-55
2023/08/31 17:00:34;;;;;;;4.30;1.48;;;;;;;20.28;47.55;99763.91;10337056;28;20946;-56
2023/08/31 17:05:36;;;;;;;3.10;1.48;;;;;;;20.23;47.17;99777.16;10336007;28;20490;-55
2023/08/31 17:10:39;;;;;;;3.55;1.77;;;;;;;20.11;47.25;99757.97;10333245;28;20050;-55
2023/08/31 17:15:41;;;;;;;3.83;1.65;;;;;;;20.10;48.02;99764.41;10339083;28;20133;-56
2023/08/31 17:20:42;;;;;;;4.07;2.63;;;;;;;20.09;47.40;99770.84;10328802;28;20112;-60
2023/08/31 17:25:44;;;;;;;3.20;2.05;;;;;;;19.89;47.94;99737.44;10311169;28;20762;-55
2023/08/31 17:30:45;;;;;;;4.78;1.80;;;;;;;20.07;48.37;99766.66;10307992;28;20210;-55
2023/08/31 17:35:47;;;;;;;2.95;1.75;;;;;;;20.06;48.02;99776.63;10325800;28;20061;-54
2023/08/31 17:40:49;;;;;;;5.53;2.00;;;;;;;20.02;48.48;99775.34;10322326;28;20157;-56
2023/08/31 17:45:50;;;;;;;3.65;1.50;;;;;;;20.06;48.50;99782.03;10321944;28;20053;-55
2023/08/31 17:50:55;;;;;;;30.77;17.05;;;;;;;19.98;48.35;99784.88;10333014;28;20131;-56
2023/08/31 17:55:57;;;;;;;4.35;2.28;;;;;;;19.88;48.16;99795.22;10339736;28;20053;-55
2023/08/31 18:00:58;;;;;;;9.43;5.50;;;;;;;19.89;48.86;99800.41;10333199;28;20514;-55
2023/08/31 18:06:02;;;;;;;4.50;2.08;;;;;;;19.81;48.98;99799.72;10336744;28;20062;-55
2023/08/31 18:11:04;;;;;;;4.47;2.33;;;;;;;19.81;49.19;99797.84;10320052;28;20168;-56
2023/08/31 18:16:06;;;;;;;4.03;1.90;;;;;;;19.77;49.41;99802.81;10318022;28;20136;-55
2023/08/31 18:21:08;;;;;;;5.13;2.22;;;;;;;19.71;49.90;99802.69;10324611;28;21697;-55
2023/08/31 18:26:09;;;;;;;6.45;3.05;;;;;;;19.81;49.85;99815.91;10337405;28;20084;-56
2023/08/31 18:31:11;;;;;;;5.85;2.38;;;;;;;19.76;50.31;99820.00;10318023;28;20525;-55
2023/08/31 18:36:12;;;;;;;3.90;2.10;;;;;;;19.79;50.68;99824.22;10321091;28;20049;-55
2023/08/31 18:41:14;;;;;;;3.80;1.85;;;;;;;19.64;50.64;99821.56;10334136;28;20645;-55
2023/08/31 18:46:16;;;;;;;5.07;1.88;;;;;;;19.56;51.00;99829.75;10311124;28;20096;-51
2023/08/31 18:51:17;;;;;;;4.20;1.80;;;;;;;19.42;51.73;99845.81;10321041;28;20433;-51
2023/08/31 18:56:19;;;;;;;3.88;1.80;;;;;;;19.33;52.05;99844.28;10334263;28;20053;-52
2023/08/31 19:01:20;;;;;;;6.13;1.65;;;;;;;19.35;52.65;99861.13;10336332;28;20148;-51
2023/08/31 19:06:22;;;;;;;5.38;1.70;;;;;;;19.29;52.77;99861.91;10310983;28;20065;-51
2023/08/31 19:11:24;;;;;;;6.43;2.15;;;;;;;19.22;53.37;99867.19;10338054;28;20072;-53
2023/08/31 19:16:26;;;;;;;4.55;1.83;;;;;;;19.15;54.05;99870.84;10317228;28;20053;-51
2023/08/31 19:21:27;;;;;;;6.65;1.83;;;;;;;19.03;54.81;99887.50;10321604;28;20057;-52
2023/08/31 19:26:28;;;;;;;5.28;1.88;;;;;;;19.04;55.18;99881.09;10320050;28;20148;-51
2023/08/31 19:31:31;;;;;;;3.33;2.17;;;;;;;19.01;56.24;99889.56;10327875;28;20081;-52
2023/08/31 19:36:33;;;;;;;4.30;2.30;;;;;;;18.95;57.31;99898.41;10317031;28;20518;-52
2023/08/31 19:41:35;;;;;;;4.55;1.88;;;;;;;18.86;58.42;99907.63;10321192;28;20136;-52
2023/08/31 19:46:37;;;;;;;6.57;2.40;;;;;;;18.80;59.13;99906.47;10333921;28;20067;-50
2023/08/31 19:51:39;;;;;;;4.75;2.10;;;;;;;18.78;59.39;99908.50;10334529;28;20080;-51
2023/08/31 19:56:41;;;;;;;5.70;2.45;;;;;;;18.73;60.73;99905.53;10340114;28;20057;-55
2023/08/31 20:01:42;;;;;;;5.15;2.13;;;;;;;18.73;61.13;99909.06;10340908;28;20955;-56
2023/08/31 20:06:44;;;;;;;4.05;2.03;;;;;;;18.64;62.02;99904.75;10329131;28;20477;-51
2023/08/31 20:11:45;;;;;;;5.90;1.80;;;;;;;18.64;62.37;99914.72;10343571;28;20136;-50
2023/08/31 20:16:48;;;;;;;3.75;2.10;;;;;;;18.60;62.67;99908.88;10342483;28;20053;-50
2023/08/31 20:21:50;;;;;;;5.10;2.30;;;;;;;18.51;63.43;99918.03;10342421;28;20134;-50
2023/08/31 20:26:52;;;;;;;4.35;2.28;;;;;;;18.43;64.18;99920.81;10314018;28;20293;-52
2023/08/31 20:31:56;;;;;;;7.40;3.00;;;;;;;18.34;64.86;99926.28;10304493;28;20057;-51
2023/08/31 20:37:00;;;;;;;5.93;2.55;;;;;;;18.32;66.26;99931.03;10335892;28;20057;-50
2023/08/31 20:42:03;;;;;;;8.70;2.72;;;;;;;18.28;67.79;99929.69;10338761;28;20053;-51
2023/08/31 20:47:08;;;;;;;5.00;2.70;;;;;;;18.32;68.76;99932.88;10336152;28;20162;-57
2023/08/31 20:52:10;;;;;;;4.85;2.08;;;;;;;18.29;70.22;99936.78;10334339;28;20057;-51
2023/08/31 20:57:11;;;;;;;6.45;2.20;;;;;;;18.28;70.77;99939.66;10338729;28;20701;-50
2023/08/31 21:02:13;;;;;;;5.18;2.80;;;;;;;18.23;71.59;99940.19;10322212;28;20801;-52
2023/08/31 21:07:15;;;;;;;6.50;3.10;;;;;;;18.18;72.42;99929.97;10332865;28;20087;-51
2023/08/31 21:12:16;;;;;;;5.47;2.75;;;;;;;18.01;72.02;99907.72;10337674;28;20061;-51
2023/08/31 21:17:18;;;;;;;4.13;2.55;;;;;;;18.18;73.58;99939.91;10337228;28;20060;-50
2023/08/31 21:22:19;;;;;;;4.28;2.30;;;;;;;18.21;73.13;99944.94;10335936;28;20049;-50
2023/08/31 21:27:21;;;;;;;4.15;2.97;;;;;;;18.22;74.52;99943.91;10346915;28;20132;-50
2023/08/31 21:32:22;;;;;;;3.78;2.13;;;;;;;18.12;75.29;99932.53;10345468;28;20080;-51
2023/08/31 21:37:24;;;;;;;5.60;2.85;;;;;;;18.05;76.14;99931.59;10346601;28;20642;-51
2023/08/31 21:42:25;;;;;;;4.55;2.78;;;;;;;18.02;77.39;99924.72;10346887;28;20053;-51
2023/08/31 21:47:27;;;;;;;4.53;2.55;;;;;;;17.90;77.97;99920.75;10315131;28;20057;-53
2023/08/31 21:52:29;;;;;;;3.42;2.42;;;;;;;17.79;78.11;99916.56;10343800;28;20158;-52
2023/08/31 21:57:30;;;;;;;5.97;2.63;;;;;;;17.84;79.13;99930.34;10342901;28;20608;-52
2023/08/31 22:02:32;;;;;;;4.72;2.70;;;;;;;17.75;79.21;99926.06;10330169;28;20064;-53
2023/08/31 22:07:36;;;;;;;6.15;3.45;;;;;;;17.75;79.76;99926.06;10329341;28;20159;-55
2023/08/31 22:12:38;;;;;;;;;;;;;;;17.66;80.38;99923.41;10340693;28;20907;-51
2023/08/31 22:17:42;;;;;;;5.25;2.80;;;;;;;17.56;80.60;99917.41;10331825;28;19951;-52
2023/08/31 22:22:47;;;;;;;4.93;2.60;;;;;;;17.59;80.59;99914.34;10348601;28;20049;-52
2023/08/31 22:27:50;;;;;;;5.82;2.45;;;;;;;17.62;80.18;99921.25;10331330;28;20064;-52
2023/08/31 22:32:56;;;;;;;4.18;2.97;;;;;;;17.57;81.00;99924.47;10336933;28;20161;-51
2023/08/31 22:37:57;;;;;;;5.07;3.00;;;;;;;17.51;81.85;99917.09;10332759;28;20045;-52
2023/08/31 22:42:59;;;;;;;2.90;2.13;;;;;;;17.38;81.43;99923.03;10340157;28;20097;-52
2023/08/31 22:48:00;;;;;;;4.15;2.78;;;;;;;17.40;82.45;99918.34;10332364;28;20183;-50
2023/08/31 22:53:03;;;;;;;3.85;2.38;;;;;;;17.34;82.45;99923.56;10335988;28;20363;-50
2023/08/31 22:58:05;;;;;;;4.55;3.05;;;;;;;17.27;83.23;99926.97;10343030;28;20075;-51
2023/08/31 23:03:09;;;;;;;5.25;2.90;;;;;;;17.24;83.18;99915.72;10333601;28;20061;-53
2023/08/31 23:08:11;;;;;;;4.13;2.60;;;;;;;17.26;83.24;99911.88;10302896;28;20068;-52
2023/08/31 23:13:13;;;;;;;4.93;3.28;;;;;;;17.24;84.00;99908.50;10337240;28;20760;-51
2023/08/31 23:18:15;;;;;;;6.05;2.90;;;;;;;17.24;84.32;99919.25;10339337;28;20054;-52
2023/08/31 23:23:17;;;;;;;4.85;2.63;;;;;;;17.31;83.71;99912.16;10341002;28;20046;-52
2023/08/31 23:28:18;;;;;;;4.38;2.67;;;;;;;17.30;83.80;99905.09;10336131;28;20141;-53